KASG

Springdale Municipal Airport

Springdale, Arkansas, USA
METAR KASG 210148Z 14003KT 10SM SCT110 20/20 A3005
Observed Flight Rules
May-21 @ 01:48 UTC (6 hours ago) Visual Flight Rules
Wind Visibility Clouds
140° at 3 knots 10 miles
  • Scattered at 11,000' AGL
Temperatures Readings
Current 20°C / 68°F
Dewpoint 20°C / 68°F
Humidity 100%
Altimeter 30.05" Hg
Pressure 1018 hPa
Elevation 412
METAR KASG 210148Z 14003KT 10SM SCT110 20/20 A3005
Observed Flight Rules
May-21 @ 01:48 UTC
(6 hours ago)
VFR
Wind Visibility
140° at 3 knots 10 miles
Clouds
  • Scattered at 11,000' AGL
Temperature Dewpoint
20°C / 68°F 20°C / 68°F
Humidity Altimeter Pressure
100% 30.05" Hg 1018 hPa